Time;durP1;ratioP1;P1;durP2;ratioP2;P2;SDS_P1;SDS_P2;PMS_P1;PMS_P2;Temp;Humidity;BMP_temperature;BMP_pressure;BME280_temperature;BME280_humidity;BME280_pressure;Samples;Min_cycle;Max_cycle;Signal;HPM_P1;HPM_P2
2022/03/17 00:02:04;;;;;;;20.77;11.00;;;;;;;9.72;71.54;101840.06;5052907;28;20053;-82
2022/03/17 00:04:30;;;;;;;19.57;10.43;;;;;;;9.72;70.98;101845.22;5051426;28;20048;-82
2022/03/17 00:06:56;;;;;;;20.50;11.00;;;;;;;9.72;71.04;101853.00;5052677;28;20040;-82
2022/03/17 00:09:21;;;;;;;19.83;10.70;;;;;;;9.75;71.12;101850.41;5052335;28;20025;-82
2022/03/17 00:11:47;;;;;;;21.93;11.83;;;;;;;9.77;70.81;101853.88;5052201;28;20039;-82
2022/03/17 00:14:12;;;;;;;19.77;10.30;;;;;;;9.73;71.20;101844.38;5052743;28;20078;-82
2022/03/17 00:16:37;;;;;;;19.80;9.97;;;;;;;9.72;71.45;101851.28;5051596;28;20112;-82
2022/03/17 00:19:03;;;;;;;18.77;9.87;;;;;;;9.72;71.29;101843.50;5052776;28;20053;-82
2022/03/17 00:21:28;;;;;;;19.70;10.20;;;;;;;9.76;71.01;101846.09;5052128;28;20361;-83
2022/03/17 00:23:54;;;;;;;17.70;9.17;;;;;;;9.72;71.37;101843.50;5051797;28;20542;-82
2022/03/17 00:26:19;;;;;;;18.47;9.33;;;;;;;9.66;71.32;101845.19;5052410;28;20040;-82
2022/03/17 00:28:44;;;;;;;19.67;10.47;;;;;;;9.72;71.08;101838.31;5052662;28;20112;-82
2022/03/17 00:31:09;;;;;;;19.83;10.30;;;;;;;9.67;71.43;101840.03;5051795;28;20380;-82
2022/03/17 00:33:35;;;;;;;19.63;10.70;;;;;;;9.66;72.04;101834.81;5052218;28;20033;-82
2022/03/17 00:36:00;;;;;;;20.47;11.13;;;;;;;9.70;71.44;101840.03;5052073;28;20040;-82
2022/03/17 00:38:25;;;;;;;20.77;11.10;;;;;;;9.70;71.50;101837.44;5051249;28;20365;-82
2022/03/17 00:40:50;;;;;;;21.37;11.57;;;;;;;9.67;71.95;101832.25;5052246;28;20025;-82
2022/03/17 00:43:16;;;;;;;21.70;11.83;;;;;;;9.64;71.68;101841.72;5052210;28;20025;-82
2022/03/17 00:45:47;;;;;;;24.30;13.50;;;;;;;9.66;72.77;101840.00;5051456;28;20111;-82
2022/03/17 00:48:12;;;;;;;21.67;12.25;;;;;;;9.62;72.12;101848.66;5052184;28;20049;-81
2022/03/17 00:50:38;;;;;;;19.20;10.37;;;;;;;9.58;72.35;101851.22;5052108;28;20037;-82
2022/03/17 00:53:04;;;;;;;19.87;10.30;;;;;;;9.62;71.73;101853.84;5051469;28;20025;-82
2022/03/17 00:55:32;;;;;;;19.77;10.50;;;;;;;9.56;72.35;101855.50;5052036;28;20441;-82
2022/03/17 00:57:58;;;;;;;19.63;10.00;;;;;;;9.54;71.99;101856.38;5052365;28;20295;-82
2022/03/17 01:00:23;;;;;;;24.03;14.00;;;;;;;9.72;72.09;101855.59;5051220;28;20080;-82
2022/03/17 01:02:53;;;;;;;22.13;12.40;;;;;;;9.64;72.36;101854.69;5052234;28;20025;-82
2022/03/17 01:05:19;;;;;;;22.45;12.40;;;;;;;9.55;73.88;101846.00;5051831;28;20031;-82
2022/03/17 01:07:44;;;;;;;22.87;13.37;;;;;;;9.57;72.56;101862.44;5053023;28;20033;-82
2022/03/17 01:10:15;;;;;;;22.70;12.87;;;;;;;9.60;72.78;101858.13;5055727;28;20071;-82
2022/03/17 01:12:43;;;;;;;21.77;11.98;;;;;;;9.59;73.59;101849.47;5055950;28;20029;-82
2022/03/17 01:15:09;;;;;;;19.98;11.13;;;;;;;9.55;72.70;101858.97;5054979;28;20083;-82
2022/03/17 01:17:34;;;;;;;22.50;12.23;;;;;;;9.58;73.05;101861.56;5055225;28;20032;-82
2022/03/17 01:19:59;;;;;;;19.70;10.33;;;;;;;9.55;72.63;101860.69;5054759;28;20033;-82
2022/03/17 01:22:25;;;;;;;18.47;9.27;;;;;;;9.53;73.37;101854.63;5055342;28;20033;-82
2022/03/17 01:24:51;;;;;;;18.50;9.10;;;;;;;9.55;73.39;101852.94;5055573;28;20033;-82
2022/03/17 01:27:20;;;;;;;19.77;10.38;;;;;;;9.52;74.43;101845.97;5054528;28;20087;-82
2022/03/17 01:29:46;;;;;;;19.45;10.25;;;;;;;9.54;73.76;101843.41;5055575;28;20021;-82
2022/03/17 01:32:11;;;;;;;21.20;11.50;;;;;;;9.54;74.43;101840.81;5055549;28;20031;-82
2022/03/17 01:34:36;;;;;;;21.17;11.37;;;;;;;9.57;73.81;101851.19;5054295;28;20048;-82
2022/03/17 01:37:02;;;;;;;18.13;9.20;;;;;;;9.54;73.41;101854.63;5055521;28;20040;-82
2022/03/17 01:39:27;;;;;;;18.63;9.40;;;;;;;9.57;74.63;101861.56;5054903;28;20067;-83
2022/03/17 01:41:57;;;;;;;17.77;9.13;;;;;;;9.58;73.67;101853.81;5054714;28;20120;-82
2022/03/17 01:44:22;;;;;;;19.05;9.77;;;;;;;9.62;73.98;101849.50;5054698;28;20029;-82
2022/03/17 01:49:31;;;;;;;19.80;10.25;;;;;;;9.68;73.47;101853.84;5054412;28;20051;-81
2022/03/17 01:51:56;;;;;;;19.77;10.37;;;;;;;9.69;74.71;101846.06;5054471;28;20388;-82
2022/03/17 01:54:25;;;;;;;20.30;10.60;;;;;;;9.70;73.90;101855.56;5054939;28;20029;-82
2022/03/17 01:56:51;;;;;;;20.38;10.50;;;;;;;9.71;74.88;101854.72;5054150;28;20108;-82
2022/03/17 01:59:17;;;;;;;20.55;10.90;;;;;;;9.78;73.42;101849.56;5054711;28;20017;-82
2022/03/17 02:01:58;;;;;;;18.23;9.20;;;;;;;9.74;74.14;101857.34;5054725;28;20079;-82
2022/03/17 02:04:24;;;;;;;20.17;10.02;;;;;;;9.77;74.15;101840.06;5054295;28;20540;-82
2022/03/17 02:06:50;;;;;;;19.90;10.13;;;;;;;9.79;74.64;101841.78;5054870;28;20142;-82
2022/03/17 02:09:16;;;;;;;19.08;10.23;;;;;;;9.85;73.87;101848.72;5053474;28;20033;-82
2022/03/17 02:14:25;;;;;;;19.30;9.98;;;;;;;9.82;75.63;101852.19;5054254;28;20140;-82
2022/03/17 02:16:51;;;;;;;22.20;12.03;;;;;;;9.89;74.24;101853.09;5053944;28;20100;-82
2022/03/17 02:19:17;;;;;;;21.40;11.60;;;;;;;9.85;75.17;101859.09;5054132;28;20032;-81
2022/03/17 02:21:44;;;;;;;19.85;10.88;;;;;;;9.83;76.16;101855.63;5054128;28;20116;-82
2022/03/17 02:26:57;;;;;;;20.80;10.32;;;;;;;9.83;75.66;101859.09;5054269;28;20039;-82
2022/03/17 02:29:22;;;;;;;18.77;9.23;;;;;;;9.81;75.01;101859.94;5054027;28;20017;-82
2022/03/17 02:31:50;;;;;;;17.60;8.60;;;;;;;9.82;75.24;101869.44;5053660;28;20032;-82
2022/03/17 02:34:17;;;;;;;18.70;9.15;;;;;;;9.80;75.86;101869.47;5053756;28;20036;-83
2022/03/17 02:36:50;;;;;;;17.83;8.65;;;;;;;9.82;75.90;101874.63;5054119;28;20017;-82
2022/03/17 02:39:20;;;;;;;14.55;7.13;;;;;;;9.81;75.15;101872.91;5052829;28;20389;-81
2022/03/17 02:41:45;;;;;;;14.10;6.80;;;;;;;9.81;75.49;101886.75;5053984;28;20047;-82
2022/03/17 02:44:11;;;;;;;12.73;6.33;;;;;;;9.82;75.29;101879.81;5053682;28;20461;-82
2022/03/17 02:46:37;;;;;;;12.33;5.93;;;;;;;9.82;74.61;101885.91;5053780;28;20392;-82
2022/03/17 02:49:04;;;;;;;11.83;5.80;;;;;;;9.82;75.42;101890.19;5053629;28;20129;-82
2022/03/17 02:51:29;;;;;;;15.07;6.95;;;;;;;9.83;76.15;101894.53;5052269;28;20041;-82
2022/03/17 02:53:54;;;;;;;16.47;7.80;;;;;;;9.81;76.75;101893.63;5053855;28;20051;-82
2022/03/17 02:56:20;;;;;;;15.30;7.13;;;;;;;9.82;76.93;101903.16;5053439;28;20479;-82
2022/03/17 02:58:45;;;;;;;15.07;7.30;;;;;;;9.81;76.87;101899.72;5053118;28;20068;-82
2022/03/17 03:01:10;;;;;;;17.13;8.43;;;;;;;9.82;77.71;101908.34;5053552;28;20071;-83
2022/03/17 03:03:35;;;;;;;18.50;9.20;;;;;;;9.81;78.23;101911.78;5052997;28;20032;-82
2022/03/17 03:06:01;;;;;;;18.63;8.97;;;;;;;9.79;78.77;101924.75;5052844;28;20439;-82
2022/03/17 03:08:27;;;;;;;20.17;10.83;;;;;;;9.81;79.45;101923.03;5052919;28;20040;-82
2022/03/17 03:10:53;;;;;;;20.95;11.23;;;;;;;9.80;79.42;101933.38;5053598;28;20119;-82
2022/03/17 03:13:18;;;;;;;20.60;11.03;;;;;;;9.81;81.23;101933.41;5052159;28;20065;-82
2022/03/17 03:15:44;;;;;;;22.33;12.47;;;;;;;9.77;83.43;101944.63;5053612;28;20017;-83
2022/03/17 03:18:09;;;;;;;21.03;11.60;;;;;;;9.77;83.04;101961.91;5053399;28;20103;-83
2022/03/17 03:20:34;;;;;;;20.77;10.83;;;;;;;9.74;84.96;101971.41;5052269;28;20906;-83
2022/03/17 03:22:59;;;;;;;20.03;11.23;;;;;;;9.68;85.21;101978.25;5053369;28;20028;-83
2022/03/17 03:25:25;;;;;;;19.53;10.20;;;;;;;9.62;85.09;101980.84;5053342;28;20469;-82
2022/03/17 03:27:50;;;;;;;16.60;8.93;;;;;;;9.54;85.91;101981.63;5052263;28;20028;-83
2022/03/17 03:30:16;;;;;;;15.97;7.83;;;;;;;9.43;86.55;101988.44;5052291;28;20021;-83
2022/03/17 03:32:47;;;;;;;13.80;7.27;;;;;;;9.35;86.63;101993.56;5053130;28;20061;-82
2022/03/17 03:37:57;;;;;;;12.23;6.25;;;;;;;9.25;86.28;102007.28;5053197;28;20090;-83
2022/03/17 03:40:23;;;;;;;11.87;6.67;;;;;;;9.21;87.37;102016.75;5052408;28;20028;-83
2022/03/17 03:42:48;;;;;;;11.83;5.87;;;;;;;9.16;85.90;102017.56;5052398;28;20029;-83
2022/03/17 03:45:14;;;;;;;10.10;5.47;;;;;;;9.12;86.90;102017.53;5053027;28;20029;-83
2022/03/17 03:47:39;;;;;;;10.73;5.63;;;;;;;9.09;88.09;102040.84;5051924;28;20430;-83
2022/03/17 03:50:04;;;;;;;17.30;8.70;;;;;;;8.99;88.42;102043.31;5052503;28;20052;-84
2022/03/17 03:52:30;;;;;;;19.73;10.13;;;;;;;8.86;88.09;102050.06;5052286;28;20377;-83
2022/03/17 03:54:55;;;;;;;18.87;10.00;;;;;;;8.78;87.59;102068.09;5052104;28;20071;-83
2022/03/17 03:57:20;;;;;;;18.63;10.43;;;;;;;8.71;87.10;102067.16;5052793;28;20074;-83
2022/03/17 03:59:46;;;;;;;19.98;11.30;;;;;;;8.63;87.29;102081.72;5052813;28;20020;-83
2022/03/17 04:02:11;;;;;;;20.20;12.37;;;;;;;8.54;87.18;102085.06;5052506;28;20033;-83
2022/03/17 04:04:40;;;;;;;20.50;12.23;;;;;;;8.47;87.61;102096.16;5052313;28;20017;-83
2022/03/17 04:07:10;;;;;;;21.58;13.07;;;;;;;8.42;87.52;102095.22;5052629;28;20488;-83
2022/03/17 04:09:41;;;;;;;23.20;13.68;;;;;;;8.37;87.35;102110.66;5051769;28;20037;-83
2022/03/17 04:12:11;;;;;;;21.88;12.85;;;;;;;8.35;87.45;102108.06;5052463;28;20029;-83
2022/03/17 04:14:37;;;;;;;22.20;13.80;;;;;;;8.27;87.62;102117.44;5055082;28;20032;-83
2022/03/17 04:17:04;;;;;;;22.40;12.77;;;;;;;8.23;88.08;102122.53;5054661;28;20083;-83
2022/03/17 04:19:29;;;;;;;21.95;12.60;;;;;;;8.18;88.14;102131.09;5054291;28;20286;-83
2022/03/17 04:21:55;;;;;;;21.17;11.83;;;;;;;8.16;87.40;102135.38;5054489;28;20017;-83
2022/03/17 04:24:22;;;;;;;19.60;10.47;;;;;;;8.16;88.13;102144.88;5051914;28;20480;-83
2022/03/17 04:26:48;;;;;;;19.10;9.52;;;;;;;8.15;87.01;102161.22;5052413;28;20461;-83
2022/03/17 04:29:14;;;;;;;18.23;8.75;;;;;;;8.15;87.01;102169.84;5052805;28;20036;-84
2022/03/17 04:31:42;;;;;;;17.95;9.18;;;;;;;8.15;87.34;102179.31;5051158;28;20041;-83
2022/03/17 04:34:07;;;;;;;20.23;10.95;;;;;;;8.07;88.05;102176.59;5052651;28;20068;-83
2022/03/17 04:36:33;;;;;;;20.87;11.40;;;;;;;7.99;88.09;102180.78;5052533;28;20053;-84
2022/03/17 04:38:59;;;;;;;21.23;11.07;;;;;;;7.94;87.94;102187.59;5051781;28;20433;-83
2022/03/17 04:41:25;;;;;;;20.20;10.60;;;;;;;7.92;87.54;102209.94;5052048;28;20025;-83
2022/03/17 04:43:50;;;;;;;19.88;9.98;;;;;;;7.87;88.15;102218.50;5054830;28;20032;-83
2022/03/17 04:46:16;;;;;;;21.38;11.10;;;;;;;7.84;88.46;102221.03;5055571;28;20025;-83
2022/03/17 04:48:42;;;;;;;22.55;11.52;;;;;;;7.81;87.70;102222.69;5056074;28;20049;-83
2022/03/17 04:51:07;;;;;;;23.13;12.10;;;;;;;7.71;88.31;102227.66;5055483;28;20048;-83
2022/03/17 04:53:33;;;;;;;21.93;11.53;;;;;;;7.66;87.34;102229.31;5056054;28;20021;-83
2022/03/17 04:56:04;;;;;;;21.57;11.07;;;;;;;7.62;87.21;102247.31;5056167;28;20104;-83
2022/03/17 04:58:31;;;;;;;20.92;10.38;;;;;;;7.59;87.14;102248.13;5054939;28;20056;-83
2022/03/17 05:00:58;;;;;;;22.40;11.60;;;;;;;7.57;86.99;102255.81;5055587;28;20028;-83
2022/03/17 05:03:30;;;;;;;20.98;10.80;;;;;;;7.53;87.40;102256.63;5055785;28;20032;-84
2022/03/17 05:05:59;;;;;;;21.52;10.90;;;;;;;7.52;86.84;102272.97;5055530;28;20029;-83
2022/03/17 05:08:25;;;;;;;20.20;10.77;;;;;;;7.49;86.75;102275.47;5055608;28;20021;-83
2022/03/17 05:10:52;;;;;;;20.70;10.37;;;;;;;7.49;86.63;102290.09;5055706;28;20017;-83
2022/03/17 05:13:19;;;;;;;19.15;9.57;;;;;;;7.48;85.91;102296.97;5054575;28;20106;-83
2022/03/17 05:15:44;;;;;;;;;;;;;;;7.46;86.11;102306.41;5056353;28;20028;-83
2022/03/17 05:18:10;;;;;;;19.37;8.83;;;;;;;7.45;86.13;102309.81;5055841;28;20304;-82
2022/03/17 05:20:37;;;;;;;18.55;8.52;;;;;;;7.38;85.39;102320.88;5054351;28;20068;-83
2022/03/17 05:23:04;;;;;;;17.83;7.32;;;;;;;7.34;84.37;102324.22;5055495;28;20087;-83
2022/03/17 05:25:31;;;;;;;16.17;6.75;;;;;;;7.31;83.84;102337.09;5054925;28;20031;-82
2022/03/17 05:27:57;;;;;;;14.73;6.13;;;;;;;7.26;84.07;102348.16;5054788;28;20021;-83
2022/03/17 05:30:22;;;;;;;13.80;5.27;;;;;;;7.24;82.69;102354.16;5055233;28;20102;-83
2022/03/17 05:32:47;;;;;;;13.32;4.95;;;;;;;7.19;82.24;102363.47;5055633;28;20025;-82
2022/03/17 05:35:17;;;;;;;14.45;4.65;;;;;;;7.18;82.52;102361.75;5054777;28;20060;-82
2022/03/17 05:37:42;;;;;;;9.35;4.10;;;;;;;7.14;81.83;102368.53;5055284;28;20427;-82
2022/03/17 05:40:17;;;;;;;11.80;4.20;;;;;;;7.15;82.50;102377.19;5054631;28;20029;-82
2022/03/17 05:42:49;;;;;;;9.82;3.95;;;;;;;7.11;82.03;102382.25;5055284;28;20112;-82
2022/03/17 05:45:17;;;;;;;9.10;3.80;;;;;;;7.13;82.09;102390.03;5055197;28;20461;-82
2022/03/17 05:47:48;;;;;;;8.50;3.35;;;;;;;7.13;81.86;102394.34;5054578;28;20025;-83
2022/03/17 05:50:16;;;;;;;8.90;3.33;;;;;;;7.12;81.84;102406.34;5054616;28;20485;-82
2022/03/17 05:52:43;;;;;;;10.90;3.72;;;;;;;7.11;81.60;102421.00;5054772;28;20029;-82
2022/03/17 05:55:12;;;;;;;;;;;;;;;7.13;81.99;102425.31;5054548;28;20053;-82
2022/03/17 05:57:38;;;;;;;8.20;3.65;;;;;;;7.10;81.64;102423.50;5054775;28;19912;-82
2022/03/17 06:00:06;;;;;;;6.00;3.15;;;;;;;7.11;81.57;102431.31;5055181;28;20025;-82
2022/03/17 06:02:33;;;;;;;11.13;3.47;;;;;;;7.09;81.02;102429.53;5053654;28;20032;-80
2022/03/17 06:04:58;;;;;;;;;;;;;;;7.09;80.48;102445.03;5056250;28;20021;-83
2022/03/17 06:07:24;;;;;;;9.50;3.17;;;;;;;7.05;80.70;102445.78;5054175;28;19936;-83
2022/03/17 06:09:49;;;;;;;9.97;3.30;;;;;;;7.01;80.63;102450.00;5053738;28;20112;-83
2022/03/17 06:12:15;;;;;;;8.57;3.50;;;;;;;6.99;80.52;102461.09;5054949;28;20029;-83
2022/03/17 06:14:41;;;;;;;7.85;3.35;;;;;;;7.00;80.72;102470.59;5058651;28;20481;-83
2022/03/17 06:17:06;;;;;;;6.43;2.80;;;;;;;6.95;80.50;102475.63;5055896;28;20021;-83
2022/03/17 06:19:32;;;;;;;6.30;2.60;;;;;;;6.93;80.27;102469.56;5054573;28;20023;-83
2022/03/17 06:21:58;;;;;;;7.22;3.00;;;;;;;6.94;80.10;102485.09;5054722;28;20028;-83
2022/03/17 06:24:24;;;;;;;8.45;2.90;;;;;;;6.93;80.35;102487.63;5057147;28;20017;-83
2022/03/17 06:26:50;;;;;;;5.43;2.80;;;;;;;6.92;80.53;102491.06;5054621;28;20071;-83
2022/03/17 06:29:15;;;;;;;5.60;2.80;;;;;;;6.92;80.22;102497.09;5053460;28;20025;-84
2022/03/17 06:31:40;;;;;;;6.82;3.03;;;;;;;6.90;80.00;102509.06;5054120;28;20036;-83
2022/03/17 06:34:06;;;;;;;4.40;2.70;;;;;;;6.91;80.43;102509.97;5054158;28;20428;-83
2022/03/17 06:36:32;;;;;;;6.05;2.75;;;;;;;6.92;80.19;102515.16;5053209;28;20100;-82
2022/03/17 06:38:57;;;;;;;9.00;3.40;;;;;;;6.89;80.71;102533.13;5054087;28;20104;-86
2022/03/17 06:41:22;;;;;;;6.22;2.97;;;;;;;6.92;80.31;102529.78;5053641;28;20033;-84
2022/03/17 06:43:48;;;;;;;9.33;2.87;;;;;;;6.92;79.86;102543.56;5054101;28;20033;-87
2022/03/17 06:46:13;;;;;;;8.07;2.70;;;;;;;6.94;79.73;102548.75;5053866;28;20107;-82
2022/03/17 06:48:39;;;;;;;8.57;2.90;;;;;;;6.95;79.68;102553.06;5053157;28;20041;-79
2022/03/17 06:51:04;;;;;;;5.43;2.47;;;;;;;6.97;79.22;102558.31;5052724;28;20119;-79
2022/03/17 06:53:29;;;;;;;6.17;2.53;;;;;;;6.96;79.11;102560.00;5053529;28;20032;-79
2022/03/17 06:55:54;;;;;;;6.17;2.40;;;;;;;6.96;79.11;102562.56;5053971;28;20510;-79
2022/03/17 06:58:20;;;;;;;4.20;2.10;;;;;;;6.97;79.41;102572.06;5053063;28;20039;-79
2022/03/17 07:00:48;;;;;;;5.75;2.15;;;;;;;6.98;78.86;102572.97;5053950;28;20021;-86
2022/03/17 07:03:13;;;;;;;4.60;1.90;;;;;;;6.98;78.91;102575.53;5053838;28;20032;-85
2022/03/17 07:05:38;;;;;;;4.93;2.20;;;;;;;7.01;79.03;102589.41;5052638;28;20029;-87
2022/03/17 07:08:04;;;;;;;4.05;2.00;;;;;;;7.01;78.54;102594.56;5054044;28;20028;-86
2022/03/17 07:10:29;;;;;;;5.13;2.20;;;;;;;7.01;78.79;102598.84;5054261;28;20060;-88
2022/03/17 07:12:55;;;;;;;5.95;1.95;;;;;;;7.04;78.45;102597.22;5053789;28;20095;-87
2022/03/17 07:15:21;;;;;;;6.47;2.08;;;;;;;7.04;78.30;102604.09;5053635;28;20017;-88
2022/03/17 07:17:46;;;;;;;5.63;2.00;;;;;;;7.02;78.79;102611.81;5053810;28;20027;-87
2022/03/17 07:20:14;;;;;;;6.10;1.92;;;;;;;7.03;78.95;102607.50;5052806;28;20065;-85
2022/03/17 07:22:41;;;;;;;5.72;1.80;;;;;;;7.00;78.90;102623.78;5053081;28;20399;-86
2022/03/17 07:25:09;;;;;;;6.10;1.75;;;;;;;6.97;79.38;102630.59;5053225;28;20033;-89
2022/03/17 07:27:43;;;;;;;6.70;1.85;;;;;;;6.94;80.01;102637.41;5052177;28;20029;-86
2022/03/17 07:30:22;;;;;;;10.93;2.17;;;;;;;6.89;79.92;102645.84;5054669;28;20025;-85
2022/03/17 07:32:52;;;;;;;3.90;1.70;;;;;;;6.86;80.00;102656.06;5053074;28;20021;-86
2022/03/17 07:35:18;;;;;;;3.67;1.70;;;;;;;6.86;80.05;102661.22;5052870;28;20021;-86
2022/03/17 07:37:44;;;;;;;6.68;1.65;;;;;;;6.86;80.64;102666.38;5052771;28;20041;-85
2022/03/17 07:40:10;;;;;;;6.53;1.98;;;;;;;6.85;80.60;102665.53;5052749;28;20025;-85
2022/03/17 07:42:36;;;;;;;7.47;1.77;;;;;;;6.85;80.49;102673.28;5053647;28;20029;-85
2022/03/17 07:45:03;;;;;;;5.68;1.70;;;;;;;6.86;80.96;102682.78;5050979;28;20027;-87
2022/03/17 07:47:29;;;;;;;7.93;2.20;;;;;;;6.87;80.90;102687.06;5051046;28;20029;-82
2022/03/17 07:49:54;;;;;;;7.23;2.23;;;;;;;6.85;80.65;102677.53;5052471;28;20051;-82
2022/03/17 07:52:20;;;;;;;5.85;1.55;;;;;;;6.91;79.95;102681.19;5052835;28;20527;-82
2022/03/17 07:54:46;;;;;;;5.45;1.77;;;;;;;6.95;80.71;102693.38;5050761;28;20017;-82
2022/03/17 07:57:12;;;;;;;5.53;1.70;;;;;;;6.99;80.38;102688.25;5053276;28;20120;-82
2022/03/17 07:59:44;;;;;;;5.45;1.58;;;;;;;7.00;80.16;102696.06;5052510;28;20067;-82
2022/03/17 08:02:13;;;;;;;7.43;1.70;;;;;;;7.02;79.98;102701.28;5051751;28;20041;-82
2022/03/17 08:04:38;;;;;;;6.00;1.90;;;;;;;7.01;79.83;102705.56;5053033;28;20028;-82
2022/03/17 08:07:04;;;;;;;7.47;1.90;;;;;;;7.04;79.41;102715.97;5053182;28;20044;-83
2022/03/17 08:09:30;;;;;;;3.13;1.60;;;;;;;7.00;79.47;102719.31;5051862;28;20033;-82
2022/03/17 08:11:55;;;;;;;6.85;1.55;;;;;;;7.08;79.50;102724.72;5052648;28;20079;-82
2022/03/17 08:14:21;;;;;;;4.73;1.50;;;;;;;7.07;79.73;102723.81;5052269;28;20400;-82
2022/03/17 08:16:46;;;;;;;4.73;1.80;;;;;;;7.12;78.87;102739.44;5053612;28;20021;-82
2022/03/17 08:19:12;;;;;;;4.33;1.47;;;;;;;7.12;79.08;102739.44;5056977;28;20025;-82
2022/03/17 08:21:40;;;;;;;13.60;2.40;;;;;;;7.04;78.54;102746.09;5056228;28;20364;-82
2022/03/17 08:24:06;;;;;;;11.20;2.35;;;;;;;7.05;79.00;102753.00;5056193;28;20033;-82
2022/03/17 08:26:32;;;;;;;7.70;1.77;;;;;;;7.08;78.61;102766.88;5056475;28;20016;-82
2022/03/17 08:28:58;;;;;;;8.23;2.03;;;;;;;7.08;78.60;102777.22;5055501;28;20027;-82
2022/03/17 08:31:24;;;;;;;6.73;1.83;;;;;;;7.13;78.18;102777.34;5056187;28;20021;-81
2022/03/17 08:33:50;;;;;;;5.75;1.77;;;;;;;7.20;77.54;102787.06;5056239;28;20027;-82
2022/03/17 08:36:15;;;;;;;8.63;2.08;;;;;;;7.26;76.65;102778.59;5055460;28;20029;-82
2022/03/17 08:38:40;;;;;;;5.32;1.90;;;;;;;7.33;76.43;102789.97;5056470;28;20051;-82
2022/03/17 08:41:07;;;;;;;8.20;1.98;;;;;;;7.39;75.65;102803.09;5056216;28;20135;-82
2022/03/17 08:43:32;;;;;;;5.82;2.00;;;;;;;7.46;74.70;102802.41;5055337;28;20110;-82
2022/03/17 08:51:26;;;;;;;7.28;1.80;;;;;;;7.52;74.00;102818.13;5055125;28;20446;-82
2022/03/17 08:53:52;;;;;;;8.10;2.00;;;;;;;7.53;73.01;102812.13;5056222;28;20021;-82
2022/03/17 08:56:17;;;;;;;10.15;1.88;;;;;;;7.48;71.50;102825.75;5055834;28;20272;-81
2022/03/17 08:58:42;;;;;;;6.23;1.60;;;;;;;7.49;72.08;102819.72;5055562;28;20029;-82
2022/03/17 09:01:08;;;;;;;5.43;1.90;;;;;;;7.48;72.71;102826.59;5056176;28;20213;-82
2022/03/17 09:03:33;;;;;;;5.72;1.67;;;;;;;7.53;71.79;102835.38;5056014;28;20029;-82
2022/03/17 09:05:59;;;;;;;5.07;1.67;;;;;;;7.52;71.59;102833.63;5055034;28;20044;-82
2022/03/17 09:08:26;;;;;;;8.57;2.03;;;;;;;7.53;72.21;102832.78;5055683;28;20025;-82
2022/03/17 09:10:52;;;;;;;9.95;2.20;;;;;;;7.52;71.22;102831.03;5055914;28;20025;-81
2022/03/17 09:13:17;;;;;;;5.87;2.07;;;;;;;7.54;71.30;102834.50;5054961;28;20022;-82
2022/03/17 09:15:42;;;;;;;7.83;1.80;;;;;;;7.55;70.76;102838.00;5055989;28;20025;-82
2022/03/17 09:18:15;;;;;;;7.60;1.83;;;;;;;7.57;70.15;102838.91;5055072;28;20199;-82
2022/03/17 09:20:41;;;;;;;7.95;1.73;;;;;;;7.61;70.69;102857.97;5055462;28;20071;-82
2022/03/17 09:23:06;;;;;;;3.97;1.30;;;;;;;7.64;70.11;102858.06;5055168;28;20029;-81
2022/03/17 09:25:35;;;;;;;7.07;1.80;;;;;;;7.68;70.31;102865.97;5053961;28;20420;-82
2022/03/17 09:28:02;;;;;;;7.70;2.10;;;;;;;7.67;69.03;102866.78;5056696;28;20017;-83
2022/03/17 09:30:27;;;;;;;9.55;2.10;;;;;;;7.64;69.10;102863.25;5056686;28;20021;-81
2022/03/17 09:32:54;;;;;;;5.90;1.83;;;;;;;7.66;70.67;102870.19;5054840;28;20017;-79
2022/03/17 09:35:20;;;;;;;8.75;1.80;;;;;;;7.73;69.90;102876.44;5055329;28;20362;-80
2022/03/17 09:37:45;;;;;;;6.32;1.80;;;;;;;7.76;70.14;102876.53;5055604;28;20025;-81
2022/03/17 09:40:12;;;;;;;7.73;1.90;;;;;;;7.84;70.57;102880.19;5054385;28;20025;-80
2022/03/17 09:42:40;;;;;;;8.40;1.90;;;;;;;7.81;68.19;102885.28;5051956;28;20389;-82
2022/03/17 09:45:07;;;;;;;6.03;1.90;;;;;;;7.82;67.89;102887.03;5047451;28;20082;-83
2022/03/17 09:47:36;;;;;;;5.68;1.90;;;;;;;7.88;68.56;102899.25;5054089;28;20040;-83
2022/03/17 09:50:03;;;;;;;5.53;1.80;;;;;;;7.91;68.52;102894.19;5054225;28;20059;-82
2022/03/17 09:52:31;;;;;;;9.35;2.05;;;;;;;7.93;67.83;102892.53;5054412;28;20029;-82
2022/03/17 09:54:56;;;;;;;6.55;1.73;;;;;;;7.94;66.74;102901.16;5054268;28;20033;-83
2022/03/17 09:57:22;;;;;;;8.30;2.10;;;;;;;7.96;66.76;102909.81;5053710;28;20028;-82
2022/03/17 09:59:48;;;;;;;7.60;2.00;;;;;;;7.95;66.28;102919.28;5054591;28;20043;-82
2022/03/17 10:02:18;;;;;;;10.52;2.00;;;;;;;7.88;66.43;102914.78;5052994;28;20104;-83
2022/03/17 10:04:46;;;;;;;5.47;2.10;;;;;;;7.92;67.41;102921.78;5054405;28;20051;-83
2022/03/17 10:07:12;;;;;;;8.13;2.30;;;;;;;7.97;67.38;102924.50;5053539;28;20017;-83
2022/03/17 10:09:37;;;;;;;4.53;1.63;;;;;;;7.97;67.19;102940.03;5052636;28;20032;-82
2022/03/17 10:12:11;;;;;;;5.67;1.80;;;;;;;8.02;68.28;102935.84;5053898;28;20036;-82
2022/03/17 10:14:41;;;;;;;4.45;1.55;;;;;;;8.10;68.95;102947.31;5052838;28;20804;-82
2022/03/17 10:17:28;;;;;;;6.00;1.80;;;;;;;8.17;67.69;102953.50;5054327;28;20025;-82
2022/03/17 10:20:09;;;;;;;7.30;1.92;;;;;;;8.16;65.54;102950.06;5054368;28;20111;-82
2022/03/17 10:22:40;;;;;;;5.07;1.55;;;;;;;8.19;66.28;102960.50;5053650;28;20025;-82
2022/03/17 10:25:06;;;;;;;4.78;1.48;;;;;;;8.25;65.71;102971.84;5054361;28;20024;-82
2022/03/17 10:27:42;;;;;;;6.33;1.70;;;;;;;8.28;65.33;102975.38;5054161;28;20116;-82
2022/03/17 10:30:09;;;;;;;5.95;1.90;;;;;;;8.36;66.01;102983.38;5053655;28;20017;-82
2022/03/17 10:32:36;;;;;;;;;;;;;;;8.38;64.78;102986.88;5054271;28;20086;-83
2022/03/17 10:35:02;;;;;;;10.15;2.38;;;;;;;8.27;64.44;102984.00;5054518;28;19919;-82
2022/03/17 10:37:30;;;;;;;4.50;1.80;;;;;;;8.22;65.63;102983.00;5053499;28;20111;-82
2022/03/17 10:39:57;;;;;;;4.78;1.65;;;;;;;8.31;66.70;102995.31;5052847;28;20469;-82
2022/03/17 10:42:25;;;;;;;;;;;;;;;8.42;65.32;103003.38;5054503;28;20025;-82
2022/03/17 10:44:58;;;;;;;6.28;1.80;;;;;;;8.41;65.89;103006.78;5053239;28;19909;-82
2022/03/17 10:47:24;;;;;;;6.45;2.15;;;;;;;8.41;65.72;103002.50;5053719;28;20033;-82
2022/03/17 10:50:03;;;;;;;6.88;1.75;;;;;;;8.46;66.15;103005.22;5053131;28;20056;-82
2022/03/17 10:52:42;;;;;;;6.10;1.70;;;;;;;8.51;65.35;103014.00;5053869;28;20044;-82
2022/03/17 10:55:11;;;;;;;3.33;1.60;;;;;;;8.55;65.80;103015.00;5053919;28;20424;-82
2022/03/17 10:57:37;;;;;;;5.03;1.75;;;;;;;8.61;65.60;103017.75;5052958;28;20507;-82
2022/03/17 11:00:04;;;;;;;4.07;1.63;;;;;;;8.62;65.70;103024.69;5053872;28;20408;-84
2022/03/17 11:02:32;;;;;;;;;;;;;;;8.73;66.60;103030.13;5053636;28;20021;-81
2022/03/17 11:05:06;;;;;;;3.35;1.52;;;;;;;8.82;66.01;103035.59;5052830;28;20011;-83
2022/03/17 11:07:32;;;;;;;1.85;1.20;;;;;;;8.87;65.33;103038.31;5052179;28;20028;-83
2022/03/17 11:10:07;;;;;;;6.22;1.52;;;;;;;8.89;63.16;103042.69;5053648;28;20032;-83
2022/03/17 11:12:34;;;;;;;4.75;1.80;;;;;;;8.84;63.85;103046.84;5052455;28;20040;-82
2022/03/17 11:15:01;;;;;;;5.15;1.83;;;;;;;8.86;63.01;103046.91;5053707;28;20370;-83
2022/03/17 11:17:31;;;;;;;10.00;1.98;;;;;;;8.89;61.93;103055.63;5052882;28;20020;-82
2022/03/17 11:20:05;;;;;;;6.35;1.98;;;;;;;8.92;62.29;103060.00;5052624;28;20424;-83
2022/03/17 11:22:34;;;;;;;3.55;1.52;;;;;;;9.02;63.07;103058.56;5052850;28;20028;-83
2022/03/17 11:25:19;;;;;;;3.05;1.50;;;;;;;9.12;61.13;103058.81;5052606;28;20440;-83
2022/03/17 11:27:48;;;;;;;2.63;1.60;;;;;;;9.19;62.25;103065.03;5052392;28;20040;-82
2022/03/17 11:30:15;;;;;;;2.55;1.63;;;;;;;9.23;61.32;103066.03;5052851;28;20056;-82
2022/03/17 11:32:54;;;;;;;3.88;1.80;;;;;;;9.27;62.69;103071.31;5051930;28;20029;-83
2022/03/17 11:35:29;;;;;;;3.53;1.70;;;;;;;9.35;62.95;103070.63;5053031;28;20029;-83
2022/03/17 11:38:16;;;;;;;3.38;1.58;;;;;;;9.46;61.80;103070.94;5053137;28;20021;-83
2022/03/17 11:41:03;;;;;;;6.07;1.77;;;;;;;9.49;60.85;103081.34;5051672;28;20037;-82
2022/03/17 11:43:38;;;;;;;4.45;2.00;;;;;;;9.48;62.04;103084.78;5052857;28;20384;-82
2022/03/17 11:46:24;;;;;;;4.32;1.98;;;;;;;9.48;60.58;103079.59;5052489;28;20781;-83